Архив погоды в Наро-Фоминске

Метеограмма Наро-Фоминск
Вторник, 23 Апреля
Время местн. Темп Ветер Видим Явления Облачность нижн/средн/верх Атм. давл. Влжн Точка росы ВНГО R Сост. почвы Tg s
Напр Скр Прв ур.ст ур.м изм
18:00 +17.4° С-З 4 - 10 км - преимущественно облачно 753 771 -0.7 26% -2.2° 1 км - - - -
15:00 +19.1° С,С-З 5 - 10 км - преимущественно облачно 754 771 -1 22% -3.2° 1 км - - - -
12:00 +17.2° С,С-З 3 - 10 км - облачно 755 772 +0.1 22% -4.4° 1 км - - - -
09:00 +11.7° З,С-З 1 - 10 км - преимущественно облачно 755 773 +0.4 46% +0.4° - 0 Влажная (без луж) - -
06:00 +2.1° штиль 0 - 10 км - преимущественно облачно 755 773 +0.4 79% -1.2° более 2.5 км - - - -
03:00 +3.3° штиль 0 - 10 км - преимущественно облачно 754 772 +0.3 72% -1.3° - - - - -
00:00 +5.3° штиль 0 - 10 км - ясно 754 772 +0.3 62% -1.3° более 2.5 км - - - -
Понедельник, 22 Апреля
Время местн. Темп Ветер Видим Явления Облачность нижн/средн/верх Атм. давл. Влжн Точка росы ВНГО R Сост. почвы Tg s
Напр Скр Прв ур.ст ур.м изм
21:00 +10° З,Ю-З 1 - 10 км - переменная облачность 754 771 +0.2 45% -1.5° 1.5 км 0 - - -
18:00 +17.8° С-З 2 - 10 км - переменная облачность 754 771 -0.8 20% -5.3° 1 км - - - -
15:00 +17.2° С-З 3 - 10 км - переменная облачность 754 771 -1.1 21% -5.1° 1 км - - - -
12:00 +17° С 2 - 10 км - облачно с прояснениями 755 773 +0.1 21% -5.6° 1 км - - - -
09:00 +7.8° С 1 - 10 км - преимущественно облачно 755 773 +0.7 60% +0.6° - 0 Влажная (без луж) - -
06:00 -0.3° штиль 0 - 10 км - переменная облачность 755 773 +0.3 83% -2.8° - - - - -
03:00 +0.9° штиль 0 - 10 км - ясно 754 773 +0.5 77% -2.6° более 2.5 км - - - -
00:00 +3.6° З,Ю-З 1 - 10 км - ясно 754 772 +0.5 66% -2.1° более 2.5 км - - - -
Воскресенье, 21 Апреля
Время местн. Темп Ветер Видим Явления Облачность нижн/средн/верх Атм. давл. Влжн Точка росы ВНГО R Сост. почвы Tg s
Напр Скр Прв ур.ст ур.м изм
21:00 +8.2° штиль 0 - 10 км - незначительная облачность 753 771 +0.8 45% -3.1° более 2.5 км 0 - - -
18:00 +16.4° В 1 - 10 км - облачно с прояснениями 753 770 -0.2 18% -8.1° 1 км - - - -
15:00 +17° В,Ю-В 2 - 10 км - переменная облачность 753 770 -0.5 19% -6.9° 1 км - - - -
12:00 +15.6° В 3 - 10 км - переменная облачность 753 771 +0.4 21% -6.6° 1 км - - - -
09:00 +11.8° Ю 2 - 10 км - ясно 753 770 +0.8 35% -3.2° более 2.5 км 0 Влажная (без луж) - -
06:00 +6.1° В 1 - 10 км - преимущественно облачно 752 770 +0.4 63% -0.5° 1 км - - - -
03:00 +5.2° В 1 - 10 км - облачно 752 770 0 69% - - - - -
00:00 +5.2° С 1 - 10 км - преимущественно облачно 752 770 +0.3 72% +0.5° - - - - -
Суббота, 20 Апреля
Время местн. Темп Ветер Видим Явления Облачность нижн/средн/верх Атм. давл. Влжн Точка росы ВНГО R Сост. почвы Tg s
Напр Скр Прв ур.ст ур.м изм
21:00 +8.7° С 1 - 10 км - преимущественно облачно 752 769 +0.6 55% +0.1° 1 км 0 - - -
18:00 +12.2° З,Ю-З 2 - 10 км - преимущественно облачно 751 768 -0.3 33% -3.6° 1 км - - - -
15:00 +12.3° З 2 - 10 км - преимущественно облачно 751 769 +0.1 33% -3.3° 1.5 км - - - -